• Join FlightAware (Why Join?)
  • Login
  • US Flag 
Gobble Gobble! 
12:42AM EST


 

Airport Tracker/Info


-or-


 

Live Flight TrackerFlight Track Log ✈ EJA929 ✈ 27-Jun-2014 ✈ KSAT - KCLL

Flight Track Log - Related Links

Times and Time Zones

All times are in EDT time to prevent confusion due to time zone crossing. See the EJA929 flight status page for this flight to view local times or setup timezone preferences in your user account.

Time Position Orientation Groundspeed Altitude Reporting Facility
EDT Latitude Longitude Course Direction KTS MPH feet Rate Location/Type
09:27AM 29.5194 -98.4739 228° Southwest 165 190 1,600  Level Houston Center
09:28AM 29.4814 -98.5217 228° Southwest 197 227 4,300 2,520 Climbing Houston Center
09:29AM 29.5211 -98.5942 302° West 278 320 6,900 2,580 Climbing Houston Center
09:30AM 29.6025 -98.5864 North 299 344 9,700 2,160 Climbing Houston Center
09:31AM 29.6689 -98.5233 40° Northeast 310 357 11,400 1,320 Climbing Houston Center
09:32AM 29.7467 -98.4536 38° Northeast 350 403 12,500 1,200 Climbing Houston Center
09:33AM 29.8336 -98.3758 38° Northeast 364 419 14,000 1,320 Climbing Houston Center
09:34AM 29.9153 -98.3028 38° Northeast 368 423 15,300 1,440 Climbing Houston Center
09:35AM 30.0053 -98.2211 38° Northeast 376 433 17,000 780 Climbing Houston Center
09:36AM 30.0917 -98.1433 38° Northeast 395 455 17,000  Level Houston Center
09:37AM 30.1608 -98.0214 57° Northeast 423 487 17,000  Level Houston Center
09:39AM 30.2147 -97.8994 63° Northeast 426 490 17,000  Level Houston Center
09:40AM 30.2739 -97.7681 62° Northeast 437 503 17,000  Level Houston Center
09:41AM 30.3281 -97.6456 63° Northeast 436 502 17,000  Level Houston Center
09:42AM 30.3808 -97.5214 64° Northeast 434 499 17,000  Level Houston Center
09:43AM 30.4089 -97.3858 76° East 436 502 17,000  Level Houston Center
09:44AM 30.4372 -97.2494 76° East 436 502 17,000 -720 Level Houston Center
09:45AM 30.4706 -97.0872 77° East 436 502 15,600 -1,560 Descending Houston Center
09:46AM 30.4978 -96.9536 77° East 435 501 13,800 -1,860 Descending Houston Center
09:47AM 30.5244 -96.8239 77° East 421 484 11,800 -1,980 Descending Houston Center
09:47AM 30.5350 -96.7647 78° East 405 466 11,000 -1,260 Descending Houston Center
09:48AM 30.5483 -96.7033 76° East 394 453 10,500 -1,140 Descending Houston Center
09:48AM 30.5542 -96.6656 80° East 342 394 10,000 -1,380 Descending Houston Center
09:49AM 30.5686 -96.6081 74° East 313 360 9,100 -1,920 Descending Houston Center
09:49AM 30.5939 -96.5864 36° Northeast 271 312 8,100 -3,060 Descending Houston Center
09:50AM 30.6675 -96.5903 357° North 294 338 5,500 -2,580 Descending Houston Center
09:51AM 30.7358 -96.5975 355° North 287 330 3,500 -1,680 Descending Houston Center
09:52AM 30.7769 -96.5500 45° Northeast 252 290 2,300 -1,140 Descending Houston Center
09:52AM 30.7783 -96.5322 85° East 204 235 2,100 -240 Descending Houston Center
09:53AM 30.7869 -96.4847 78° East 224 258 2,100  Level Houston Center
09:53AM 30.7894 -96.4653 81° East 195 224 2,100  Level Houston Center
09:54AM 30.7939 -96.4236 83° East 206 237 2,100  Level Houston Center
09:54AM 30.7811 -96.4128 144° Southeast 171 197 2,100  Level Houston Center
09:55AM 30.7400 -96.3981 163° South 154 177 2,100  Level Houston Center
09:56AM 30.6981 -96.3867 167° South 168 193 2,100 -300 Level Houston Center
09:57AM 30.6564 -96.3781 170° South 147 169 1,500 -600 Descending Houston Center
09:58AM 30.6250 -96.3711 169° South 137 158 900 -360 Descending Houston Center
09:59AM 30.5917 -96.3628 168° South 134 154 800 -120 Descending Houston Center
10:01AM 30.5886 -96.3638 106° East  Level Estimated